createdAt,value
2018-08-02T00:02:22.780Z,23.50
2018-08-02T00:06:31.064Z,23.40
2018-08-02T00:10:39.567Z,23.30
2018-08-02T00:14:49.625Z,23.30
2018-08-02T00:18:57.910Z,23.20
2018-08-02T00:23:06.204Z,23.20
2018-08-02T00:27:14.500Z,23.20
2018-08-02T00:31:22.878Z,23.20
2018-08-02T00:35:31.143Z,23.30
2018-08-02T00:39:39.448Z,23.20
2018-08-02T00:43:48.879Z,23.10
2018-08-02T00:47:57.152Z,23.20
2018-08-02T00:52:05.464Z,23.00
2018-08-02T00:56:13.796Z,23.00
2018-08-02T01:00:22.121Z,23.00
2018-08-02T01:08:40.193Z,22.90
2018-08-02T01:12:49.645Z,22.80
2018-08-02T01:16:58.621Z,22.70
2018-08-02T01:21:06.953Z,22.60
2018-08-02T01:25:15.207Z,22.60
2018-08-02T01:29:23.450Z,22.70
2018-08-02T01:33:31.720Z,22.70
2018-08-02T01:37:40.029Z,22.70
2018-08-02T01:41:48.281Z,22.60
2018-08-02T01:45:56.553Z,22.60
2018-08-02T01:50:05.017Z,22.60
2018-08-02T01:54:13.294Z,22.60
2018-08-02T01:58:21.672Z,22.60
2018-08-02T02:02:30.976Z,22.60
2018-08-02T02:06:39.213Z,22.50
2018-08-02T02:10:47.505Z,22.40
2018-08-02T02:14:55.785Z,22.40
2018-08-02T02:19:04.302Z,22.30
2018-08-02T02:23:12.809Z,22.20
2018-08-02T02:27:21.048Z,22.20
2018-08-02T02:31:29.745Z,22.20
2018-08-02T02:35:38.004Z,22.10
2018-08-02T02:39:46.268Z,21.90
2018-08-02T02:43:54.553Z,21.90
2018-08-02T02:48:02.845Z,21.90
2018-08-02T02:52:11.092Z,21.90
2018-08-02T02:56:20.356Z,21.70
2018-08-02T03:00:29.621Z,21.80
2018-08-02T03:04:37.881Z,21.70
2018-08-02T03:08:46.194Z,21.80
2018-08-02T03:12:54.514Z,21.60
2018-08-02T03:17:02.773Z,21.50
2018-08-02T03:21:11.064Z,21.40
2018-08-02T03:25:20.028Z,21.40
2018-08-02T03:29:29.097Z,21.40
2018-08-02T03:33:37.453Z,21.40
2018-08-02T03:37:45.769Z,21.30
2018-08-02T03:41:54.029Z,21.20
2018-08-02T03:46:02.292Z,21.30
2018-08-02T03:50:10.525Z,21.30
2018-08-02T03:54:19.813Z,21.30
2018-08-02T03:58:28.260Z,21.20
2018-08-02T04:02:37.410Z,21.20
2018-08-02T04:06:45.664Z,21.10
2018-08-02T04:10:53.948Z,21.10
2018-08-02T04:15:02.316Z,21.10
2018-08-02T04:19:10.558Z,21.10
2018-08-02T04:23:19.615Z,21.00
2018-08-02T04:27:27.926Z,21.00
2018-08-02T04:31:36.209Z,21.10
2018-08-02T04:35:44.735Z,21.10
2018-08-02T04:39:53.187Z,21.00
2018-08-02T04:44:01.478Z,21.00
2018-08-02T04:48:09.832Z,21.00
2018-08-02T04:52:18.151Z,21.00
2018-08-02T04:56:26.422Z,21.00
2018-08-02T05:00:34.729Z,21.10
2018-08-02T05:04:43.014Z,21.20
2018-08-02T05:08:51.330Z,21.20
2018-08-02T05:13:00.519Z,21.30
2018-08-02T05:17:09.880Z,21.40
2018-08-02T05:21:18.141Z,21.50
2018-08-02T05:25:26.378Z,21.50
2018-08-02T05:29:34.642Z,21.60
2018-08-02T05:33:42.982Z,21.60
2018-08-02T05:37:51.484Z,21.90
2018-08-02T05:41:59.819Z,21.80
2018-08-02T05:46:09.220Z,21.80
2018-08-02T05:50:17.496Z,21.90
2018-08-02T05:54:25.791Z,21.90
2018-08-02T05:58:34.036Z,22.00
2018-08-02T06:02:42.326Z,21.90
2018-08-02T06:06:50.594Z,22.00
2018-08-02T06:11:00.045Z,22.10
2018-08-02T06:15:09.812Z,22.10
2018-08-02T06:19:18.069Z,22.30
2018-08-02T06:23:26.315Z,22.30
2018-08-02T06:27:34.597Z,22.40
2018-08-02T06:31:42.860Z,22.60
2018-08-02T06:35:51.154Z,22.50
2018-08-02T06:40:06.949Z,22.70
2018-08-02T06:44:15.222Z,22.90
2018-08-02T06:48:22.480Z,22.80
2018-08-02T06:52:31.429Z,22.80
2018-08-02T06:56:39.677Z,22.90
2018-08-02T07:00:47.960Z,23.10
2018-08-02T07:04:56.263Z,23.30
2018-08-02T07:09:08.693Z,23.40
2018-08-02T07:13:16.993Z,23.60
2018-08-02T07:17:26.203Z,23.70
2018-08-02T07:21:35.374Z,24.00
2018-08-02T07:25:43.752Z,24.00
2018-08-02T07:29:52.077Z,24.00
2018-08-02T07:34:01.206Z,24.10
2018-08-02T07:38:10.728Z,24.20
2018-08-02T07:42:19.013Z,24.20
2018-08-02T07:46:27.336Z,24.80
2018-08-02T07:50:35.649Z,25.00
2018-08-02T07:54:43.890Z,24.90
2018-08-02T07:58:52.193Z,24.90
2018-08-02T08:03:00.525Z,25.30
2018-08-02T08:07:09.534Z,25.20
2018-08-02T08:11:17.828Z,25.60
2018-08-02T08:15:26.140Z,25.40
2018-08-02T08:19:34.402Z,25.40
2018-08-02T08:23:42.732Z,25.90
2018-08-02T08:27:51.041Z,26.10
2018-08-02T08:32:00.071Z,26.20
2018-08-02T08:36:09.445Z,26.50
2018-08-02T08:40:43.228Z,26.80
2018-08-02T08:44:51.508Z,26.70
2018-08-02T08:49:00.916Z,27.00
2018-08-02T08:53:10.182Z,26.80
2018-08-02T08:57:18.462Z,26.80
2018-08-02T09:01:26.724Z,26.90
2018-08-02T09:05:35.013Z,27.50
2018-08-02T09:09:43.334Z,27.60
2018-08-02T09:13:51.621Z,27.80
2018-08-02T09:17:59.961Z,28.20
2018-08-02T09:22:08.968Z,28.30
2018-08-02T09:26:17.234Z,28.30
2018-08-02T09:30:25.582Z,28.30
2018-08-02T09:34:33.833Z,28.40
2018-08-02T09:38:42.187Z,28.80
2018-08-02T09:42:50.429Z,28.90
2018-08-02T09:46:59.192Z,28.70
2018-08-02T09:51:08.896Z,28.90
2018-08-02T09:55:17.295Z,29.20
2018-08-02T09:59:25.625Z,29.20
2018-08-02T10:03:34.006Z,29.50
2018-08-02T10:07:42.282Z,29.60
2018-08-02T10:11:50.608Z,29.90
2018-08-02T10:20:06.961Z,30.10
2018-08-02T10:24:15.266Z,30.20
2018-08-02T10:28:23.561Z,30.30
2018-08-02T10:32:31.912Z,30.30
2018-08-02T10:36:40.314Z,30.60
2018-08-02T10:40:48.606Z,30.70
2018-08-02T10:44:56.889Z,31.00
2018-08-02T10:49:05.188Z,31.00
2018-08-02T10:53:13.554Z,30.80
2018-08-02T10:57:21.852Z,30.90
2018-08-02T11:01:31.202Z,31.20
2018-08-02T11:05:40.547Z,31.40
2018-08-02T11:09:48.881Z,31.60
2018-08-02T11:13:57.138Z,31.80
2018-08-02T11:18:05.453Z,31.70
2018-08-02T11:22:13.816Z,31.90
2018-08-02T11:26:22.146Z,31.90
2018-08-02T11:30:31.509Z,32.20
2018-08-02T11:34:39.813Z,32.10
2018-08-02T11:38:48.078Z,32.20
2018-08-02T11:42:56.404Z,32.10
2018-08-02T11:47:04.653Z,32.10
2018-08-02T11:51:13.014Z,32.10
2018-08-02T11:55:21.308Z,32.20
2018-08-02T11:59:30.000Z,32.30
2018-08-02T12:03:39.378Z,32.40
2018-08-02T12:07:47.659Z,32.50
2018-08-02T12:11:55.957Z,32.60
2018-08-02T12:16:04.264Z,32.30
2018-08-02T12:20:12.557Z,32.50
2018-08-02T12:24:20.821Z,32.40
2018-08-02T12:28:29.874Z,32.40
2018-08-02T12:32:39.265Z,32.50
2018-08-02T12:36:47.749Z,32.20
2018-08-02T12:40:55.997Z,32.30
2018-08-02T12:45:04.386Z,32.50
2018-08-02T12:49:12.621Z,33.00
2018-08-02T12:53:20.978Z,33.30
2018-08-02T12:57:30.327Z,33.20
2018-08-02T13:01:39.883Z,33.30
2018-08-02T13:05:48.150Z,33.50
2018-08-02T13:09:56.411Z,33.40
2018-08-02T13:14:04.733Z,33.40
2018-08-02T13:18:13.009Z,33.40
2018-08-02T13:22:21.301Z,33.70
2018-08-02T13:26:30.060Z,33.80
2018-08-02T13:30:39.728Z,33.80
2018-08-02T13:34:48.042Z,33.70
2018-08-02T13:38:56.358Z,33.90
2018-08-02T13:47:12.648Z,33.40
2018-08-02T13:51:20.948Z,33.10
2018-08-02T13:55:30.033Z,33.50
2018-08-02T14:03:47.622Z,33.60
2018-08-02T14:07:55.989Z,33.60
2018-08-02T14:12:04.252Z,33.40
2018-08-02T14:16:12.572Z,33.70
2018-08-02T14:20:20.926Z,33.50
2018-08-02T14:24:29.201Z,33.70
2018-08-02T14:28:38.502Z,33.70
2018-08-02T14:32:46.792Z,33.50
2018-08-02T14:36:55.112Z,33.40
2018-08-02T14:41:03.460Z,33.40
2018-08-02T14:45:11.794Z,33.40
2018-08-02T14:49:20.081Z,33.40
2018-08-02T14:53:29.194Z,33.70
2018-08-02T14:57:38.310Z,33.70
2018-08-02T15:01:46.605Z,34.00
2018-08-02T15:05:55.184Z,33.70
2018-08-02T15:10:03.475Z,33.30
2018-08-02T15:14:11.775Z,33.30
2018-08-02T15:18:20.033Z,33.40
2018-08-02T15:22:28.326Z,33.40
2018-08-02T15:26:37.369Z,33.30
2018-08-02T15:30:45.636Z,33.50
2018-08-02T15:34:53.952Z,33.40
2018-08-02T15:39:02.270Z,33.40
2018-08-02T15:43:10.548Z,33.60
2018-08-02T15:47:18.825Z,33.40
2018-08-02T15:51:27.150Z,33.40
2018-08-02T15:55:35.464Z,33.40
2018-08-02T15:59:43.701Z,33.40
2018-08-02T16:03:52.056Z,33.50
2018-08-02T16:08:01.658Z,33.50
2018-08-02T16:12:09.917Z,33.30
2018-08-02T16:16:18.213Z,33.20
2018-08-02T16:20:26.565Z,33.20
2018-08-02T16:24:34.805Z,33.10
2018-08-02T16:28:43.633Z,33.10
2018-08-02T16:32:51.877Z,33.30
2018-08-02T16:37:00.846Z,33.20
2018-08-02T16:41:10.214Z,32.90
2018-08-02T16:45:18.536Z,32.70
2018-08-02T16:49:26.780Z,32.70
2018-08-02T16:53:35.054Z,32.70
2018-08-02T16:57:43.333Z,32.70
2018-08-02T17:01:51.642Z,32.40
2018-08-02T17:06:00.858Z,32.40
2018-08-02T17:10:10.345Z,32.40
2018-08-02T17:14:18.618Z,32.40
2018-08-02T17:18:26.986Z,32.40
2018-08-02T17:22:35.243Z,32.40
2018-08-02T17:26:43.525Z,32.30
2018-08-02T17:30:51.845Z,32.30
2018-08-02T17:35:01.129Z,32.10
2018-08-02T17:39:12.151Z,32.30
2018-08-02T17:43:20.432Z,32.10
2018-08-02T17:47:29.242Z,32.00
2018-08-02T17:51:37.517Z,31.90
2018-08-02T17:55:45.865Z,31.90
2018-08-02T17:59:54.197Z,31.80
2018-08-02T18:04:02.452Z,31.60
2018-08-02T18:08:10.750Z,31.60
2018-08-02T18:12:19.136Z,31.50
2018-08-02T18:16:27.422Z,31.40
2018-08-02T18:20:35.710Z,31.30
2018-08-02T18:24:44.016Z,31.20
2018-08-02T18:28:52.328Z,31.20
2018-08-02T18:33:00.818Z,31.00
2018-08-02T18:37:10.199Z,30.70
2018-08-02T18:41:18.527Z,30.70
2018-08-02T18:45:26.857Z,30.70
2018-08-02T18:49:35.130Z,30.60
2018-08-02T18:53:43.422Z,30.50
2018-08-02T18:57:51.754Z,30.40
2018-08-02T19:02:01.083Z,30.10
2018-08-02T19:06:10.389Z,30.00
2018-08-02T19:10:18.698Z,29.80
2018-08-02T19:14:26.957Z,29.70
2018-08-02T19:18:35.265Z,29.70
2018-08-02T19:22:43.680Z,29.60
2018-08-02T19:26:51.881Z,29.50
2018-08-02T19:31:00.830Z,29.40
2018-08-02T19:35:10.157Z,29.30
2018-08-02T19:39:18.488Z,29.20
2018-08-02T19:43:26.739Z,29.10
2018-08-02T19:47:35.146Z,29.00
2018-08-02T19:51:43.510Z,28.90
2018-08-02T19:55:51.857Z,28.80
2018-08-02T20:00:00.190Z,28.80
2018-08-02T20:04:09.535Z,28.50
2018-08-02T20:08:17.850Z,28.40
2018-08-02T20:12:26.192Z,28.40
2018-08-02T20:16:34.534Z,28.30
2018-08-02T20:20:42.836Z,28.30
2018-08-02T20:24:51.387Z,28.20
2018-08-02T20:29:00.265Z,28.00
2018-08-02T20:33:09.174Z,28.10
2018-08-02T20:37:17.517Z,27.90
2018-08-02T20:41:25.803Z,27.90
2018-08-02T20:45:34.086Z,27.80
2018-08-02T20:49:42.376Z,27.70
2018-08-02T20:53:50.686Z,27.50
2018-08-02T20:57:59.616Z,27.50
2018-08-02T21:02:08.489Z,27.40
2018-08-02T21:06:16.809Z,27.30
2018-08-02T21:10:25.089Z,27.40
2018-08-02T21:14:33.390Z,27.40
2018-08-02T21:18:41.679Z,27.40
2018-08-02T21:26:58.032Z,27.00
2018-08-02T21:31:06.605Z,26.90
2018-08-02T21:35:14.887Z,26.80
2018-08-02T21:39:23.178Z,26.80
2018-08-02T21:43:32.437Z,26.70
2018-08-02T21:47:40.724Z,26.70
2018-08-02T21:51:49.025Z,26.60
2018-08-02T21:55:57.349Z,26.50
2018-08-02T22:00:17.472Z,26.60
2018-08-02T22:04:25.746Z,26.50
2018-08-02T22:08:34.017Z,26.30
2018-08-02T22:12:47.685Z,26.30
2018-08-02T22:16:55.977Z,26.10
2018-08-02T22:21:04.270Z,26.00
2018-08-02T22:25:12.563Z,26.00
2018-08-02T22:29:20.870Z,26.10
2018-08-02T22:33:30.149Z,26.10
2018-08-02T22:37:39.587Z,25.90
2018-08-02T22:41:47.878Z,25.90
2018-08-02T22:45:56.129Z,25.90
2018-08-02T22:50:04.530Z,25.90
2018-08-02T22:54:12.833Z,25.70
2018-08-02T22:58:21.129Z,25.70
2018-08-02T23:02:29.396Z,25.50
2018-08-02T23:06:38.727Z,25.60
2018-08-02T23:10:46.988Z,25.50
2018-08-02T23:14:55.255Z,25.60
2018-08-02T23:19:03.504Z,25.40
2018-08-02T23:23:11.797Z,25.60
2018-08-02T23:27:20.093Z,25.60
2018-08-02T23:31:28.353Z,25.60
2018-08-02T23:35:36.594Z,25.10
2018-08-02T23:39:44.840Z,25.10
2018-08-02T23:43:53.100Z,25.10
2018-08-02T23:48:01.417Z,25.10
2018-08-02T23:52:10.655Z,25.10
2018-08-02T23:56:18.953Z,25.10
